createdAt,value
2022-09-16T00:00:45.835Z,1.42
2022-09-16T00:03:14.949Z,1.50
2022-09-16T00:05:43.880Z,1.58
2022-09-16T00:08:12.376Z,1.40
2022-09-16T00:10:43.762Z,1.70
2022-09-16T00:13:11.938Z,1.20
2022-09-16T00:15:43.855Z,1.20
2022-09-16T00:18:12.180Z,1.08
2022-09-16T00:20:45.148Z,1.00
2022-09-16T00:23:12.877Z,1.17
2022-09-16T00:25:42.019Z,1.00
2022-09-16T00:28:10.205Z,1.95
2022-09-16T00:30:38.403Z,2.25
2022-09-16T00:33:06.238Z,1.50
2022-09-16T00:35:34.459Z,1.35
2022-09-16T00:38:02.206Z,1.23
2022-09-16T00:40:30.069Z,1.30
2022-09-16T00:43:00.552Z,1.08
2022-09-16T00:45:31.696Z,1.50
2022-09-16T00:48:03.210Z,1.50
2022-09-16T00:50:38.414Z,1.73
2022-09-16T00:53:07.286Z,1.63
2022-09-16T00:55:38.578Z,1.38
2022-09-16T00:58:14.430Z,1.50
2022-09-16T01:00:43.966Z,1.48
2022-09-16T01:03:12.042Z,1.25
2022-09-16T01:05:40.793Z,1.75
2022-09-16T01:08:08.565Z,1.50
2022-09-16T01:10:36.376Z,0.90
2022-09-16T01:13:09.656Z,1.52
2022-09-16T01:15:45.220Z,1.52
2022-09-16T01:18:23.127Z,1.50
2022-09-16T01:21:19.263Z,1.70
2022-09-16T01:24:30.473Z,1.40
2022-09-16T01:27:26.317Z,1.52
2022-09-16T01:30:39.907Z,1.20
2022-09-16T01:33:17.714Z,1.30
2022-09-16T01:35:58.553Z,1.08
2022-09-16T01:38:36.429Z,1.63
2022-09-16T01:41:11.465Z,1.48
2022-09-16T01:43:54.586Z,2.05
2022-09-16T01:46:31.554Z,1.30
2022-09-16T01:49:03.797Z,1.20
2022-09-16T01:51:38.977Z,1.50
2022-09-16T01:54:13.255Z,1.10
2022-09-16T01:56:46.062Z,1.40
2022-09-16T01:59:20.376Z,1.48
2022-09-16T02:01:55.346Z,1.40
2022-09-16T02:04:31.071Z,1.17
2022-09-16T02:07:03.589Z,1.70
2022-09-16T02:09:35.840Z,1.10
2022-09-16T02:12:09.734Z,1.38
2022-09-16T02:14:42.263Z,1.20
2022-09-16T02:17:12.691Z,1.33
2022-09-16T02:19:45.542Z,1.42
2022-09-16T02:22:17.841Z,1.10
2022-09-16T02:24:48.940Z,1.67
2022-09-16T02:27:19.526Z,1.42
2022-09-16T02:29:52.428Z,1.58
2022-09-16T02:32:22.696Z,1.08
2022-09-16T02:34:54.446Z,1.17
2022-09-16T02:37:26.626Z,1.27
2022-09-16T02:40:02.525Z,0.93
2022-09-16T02:42:31.697Z,1.17
2022-09-16T02:45:01.285Z,1.30
2022-09-16T02:47:33.122Z,1.20
2022-09-16T02:50:11.458Z,1.73
2022-09-16T02:52:45.371Z,1.10
2022-09-16T02:55:23.142Z,1.25
2022-09-16T02:57:52.006Z,1.17
2022-09-16T03:00:20.614Z,1.65
2022-09-16T03:02:48.520Z,0.90
2022-09-16T03:05:18.102Z,1.10
2022-09-16T03:07:45.950Z,1.27
2022-09-16T03:10:15.061Z,1.85
2022-09-16T03:12:56.694Z,1.80
2022-09-16T03:15:47.898Z,1.33
2022-09-16T03:18:34.232Z,1.58
2022-09-16T03:21:09.228Z,1.15
2022-09-16T03:23:49.651Z,1.02
2022-09-16T03:26:26.488Z,1.33
2022-09-16T03:29:04.762Z,1.08
2022-09-16T03:31:39.877Z,1.20
2022-09-16T03:34:15.189Z,1.13
2022-09-16T03:39:15.969Z,1.65
2022-09-16T03:41:44.807Z,1.35
2022-09-16T03:44:12.570Z,1.25
2022-09-16T03:46:40.956Z,1.30
2022-09-16T03:49:08.713Z,1.38
2022-09-16T03:51:36.550Z,1.80
2022-09-16T03:54:06.432Z,1.10
2022-09-16T03:56:34.184Z,1.38
2022-09-16T03:59:01.985Z,1.50
2022-09-16T04:01:30.429Z,1.13
2022-09-16T04:03:58.234Z,1.65
2022-09-16T04:06:25.937Z,1.35
2022-09-16T04:08:54.426Z,1.08
2022-09-16T04:11:23.557Z,1.13
2022-09-16T04:13:51.365Z,1.75
2022-09-16T04:16:22.558Z,1.10
2022-09-16T04:18:50.442Z,1.10
2022-09-16T04:21:19.146Z,1.40
2022-09-16T04:23:47.325Z,1.55
2022-09-16T04:26:15.595Z,1.45
2022-09-16T04:28:44.824Z,1.10
2022-09-16T04:31:14.163Z,0.98
2022-09-16T04:33:43.554Z,1.08
2022-09-16T04:36:13.818Z,1.92
2022-09-16T04:38:42.945Z,1.08
2022-09-16T04:41:13.862Z,1.23
2022-09-16T04:43:42.969Z,1.25
2022-09-16T04:46:15.812Z,0.93
2022-09-16T04:48:44.059Z,1.30
2022-09-16T04:51:14.198Z,1.00
2022-09-16T04:53:44.210Z,1.10
2022-09-16T04:56:16.111Z,1.00
2022-09-16T04:58:45.432Z,0.98
2022-09-16T05:01:17.744Z,1.23
2022-09-16T05:03:47.916Z,1.30
2022-09-16T05:06:20.675Z,1.17
2022-09-16T05:08:49.039Z,1.20
2022-09-16T05:11:19.268Z,1.40
2022-09-16T05:13:48.145Z,1.30
2022-09-16T05:16:21.464Z,1.15
2022-09-16T05:18:51.451Z,1.40
2022-09-16T05:21:20.731Z,1.45
2022-09-16T05:23:49.495Z,1.08
2022-09-16T05:26:20.625Z,1.52
2022-09-16T05:28:48.442Z,1.55
2022-09-16T05:31:21.813Z,1.73
2022-09-16T05:33:56.103Z,1.30
2022-09-16T05:36:25.010Z,1.10
2022-09-16T05:39:18.170Z,1.15
2022-09-16T05:41:40.950Z,1.10
2022-09-16T05:44:08.920Z,1.90
2022-09-16T05:46:40.748Z,1.40
2022-09-16T05:49:08.556Z,1.23
2022-09-16T05:51:38.117Z,1.73
2022-09-16T05:54:06.641Z,1.80
2022-09-16T05:56:34.884Z,1.35
2022-09-16T05:59:03.326Z,1.65
2022-09-16T06:01:33.065Z,1.10
2022-09-16T06:04:07.318Z,1.30
2022-09-16T06:06:36.875Z,1.55
2022-09-16T06:09:07.562Z,2.00
2022-09-16T06:11:38.608Z,1.30
2022-09-16T06:14:07.121Z,1.23
2022-09-16T06:16:35.335Z,1.70
2022-09-16T06:19:07.451Z,1.88
2022-09-16T06:21:35.218Z,1.38
2022-09-16T06:24:03.372Z,1.95
2022-09-16T06:26:31.744Z,1.13
2022-09-16T06:28:59.473Z,1.00
2022-09-16T06:31:28.681Z,2.28
2022-09-16T06:33:57.241Z,0.80
2022-09-16T06:36:28.093Z,1.20
2022-09-16T06:38:55.901Z,1.10
2022-09-16T06:41:24.564Z,1.00
2022-09-16T06:43:52.786Z,1.05
2022-09-16T06:46:22.978Z,1.23
2022-09-16T06:48:52.799Z,0.80
2022-09-16T06:51:24.483Z,0.93
2022-09-16T06:53:56.406Z,1.17
2022-09-16T06:56:24.160Z,0.85
2022-09-16T06:58:53.290Z,0.90
2022-09-16T07:01:23.237Z,1.15
2022-09-16T07:03:52.921Z,1.70
2022-09-16T07:06:26.632Z,1.30
2022-09-16T07:09:07.684Z,1.17
2022-09-16T07:11:35.638Z,1.10
2022-09-16T07:14:03.353Z,1.50
2022-09-16T07:16:31.138Z,1.13
2022-09-16T07:19:01.283Z,1.35
2022-09-16T07:21:30.514Z,1.52
2022-09-16T07:23:59.770Z,1.25
2022-09-16T07:26:31.089Z,1.17
2022-09-16T07:29:02.250Z,1.23
2022-09-16T07:31:32.322Z,1.50
2022-09-16T07:34:04.271Z,1.58
2022-09-16T07:36:37.656Z,1.40
2022-09-16T07:39:06.501Z,1.25
2022-09-16T07:41:38.720Z,1.60
2022-09-16T07:44:07.825Z,1.33
2022-09-16T07:46:37.590Z,1.52
2022-09-16T07:49:08.188Z,1.23
2022-09-16T07:51:36.767Z,1.00
2022-09-16T07:54:06.471Z,1.20
2022-09-16T07:56:38.400Z,1.08
2022-09-16T07:59:11.075Z,1.10
2022-09-16T08:01:43.516Z,1.20
2022-09-16T08:04:12.229Z,1.17
2022-09-16T08:06:41.242Z,1.20
2022-09-16T08:09:34.251Z,1.10
2022-09-16T08:11:59.451Z,0.90
2022-09-16T08:14:27.162Z,1.10
2022-09-16T08:16:55.111Z,0.90
2022-09-16T08:19:23.309Z,0.85
2022-09-16T08:21:52.177Z,0.77
2022-09-16T08:24:20.320Z,1.08
2022-09-16T08:26:48.185Z,0.70
2022-09-16T08:29:17.799Z,1.15
2022-09-16T08:31:45.915Z,0.70
2022-09-16T08:34:13.651Z,1.20
2022-09-16T08:36:41.679Z,0.77
2022-09-16T08:39:11.945Z,1.33
2022-09-16T08:42:14.367Z,0.65
2022-09-16T08:44:50.947Z,1.13
2022-09-16T08:47:36.436Z,0.98
2022-09-16T08:50:07.244Z,1.02
2022-09-16T08:52:38.466Z,1.05
2022-09-16T08:55:11.313Z,1.02
2022-09-16T08:57:44.092Z,1.58
2022-09-16T09:00:17.522Z,1.52
2022-09-16T09:02:53.287Z,1.20
2022-09-16T09:05:48.383Z,1.02
2022-09-16T09:08:41.466Z,1.67
2022-09-16T09:11:14.629Z,1.30
2022-09-16T09:14:03.894Z,1.30
2022-09-16T09:16:44.291Z,0.77
2022-09-16T09:19:35.804Z,0.90
2022-09-16T09:22:13.722Z,1.58
2022-09-16T09:25:02.539Z,1.15
2022-09-16T09:27:38.098Z,1.55
2022-09-16T09:30:18.559Z,0.95
2022-09-16T09:33:41.845Z,1.00
2022-09-16T09:36:28.460Z,0.93
2022-09-16T09:39:32.805Z,1.00
2022-09-16T09:42:07.741Z,0.88
2022-09-16T09:44:48.840Z,1.15
2022-09-16T09:47:23.868Z,0.70
2022-09-16T09:49:57.313Z,1.20
2022-09-16T09:52:32.759Z,0.95
2022-09-16T09:57:41.022Z,0.63
2022-09-16T10:00:16.113Z,0.93
2022-09-16T10:02:49.788Z,1.00
2022-09-16T10:05:23.330Z,0.90
2022-09-16T10:07:53.613Z,1.13
2022-09-16T10:10:24.685Z,1.00
2022-09-16T10:12:52.636Z,0.90
2022-09-16T10:15:23.428Z,1.23
2022-09-16T10:17:53.130Z,1.10
2022-09-16T10:20:29.233Z,0.80
2022-09-16T10:23:01.551Z,1.08
2022-09-16T10:25:31.875Z,1.40
2022-09-16T10:28:01.374Z,0.90
2022-09-16T10:30:34.430Z,0.80
2022-09-16T10:33:04.596Z,1.42
2022-09-16T10:35:36.451Z,0.90
2022-09-16T10:38:14.473Z,0.95
2022-09-16T10:40:53.055Z,1.05
2022-09-16T10:43:22.098Z,0.80
2022-09-16T10:45:51.674Z,1.23
2022-09-16T10:48:22.090Z,1.45
2022-09-16T10:50:56.340Z,0.95
2022-09-16T10:53:30.636Z,1.08
2022-09-16T10:56:01.089Z,1.00
2022-09-16T10:58:29.416Z,0.90
2022-09-16T11:01:21.816Z,0.80
2022-09-16T11:04:28.294Z,0.85
2022-09-16T11:07:09.254Z,1.20
2022-09-16T11:09:45.553Z,1.15
2022-09-16T11:12:41.400Z,1.55
2022-09-16T11:15:21.149Z,1.20
2022-09-16T11:18:04.130Z,1.02
2022-09-16T11:21:14.114Z,1.50
2022-09-16T11:24:03.919Z,1.00
2022-09-16T11:26:41.026Z,1.63
2022-09-16T11:29:34.572Z,1.63
2022-09-16T11:32:13.127Z,1.38
2022-09-16T11:34:55.574Z,1.88
2022-09-16T11:37:31.798Z,1.20
2022-09-16T11:40:16.617Z,1.30
2022-09-16T11:42:53.389Z,1.00
2022-09-16T11:45:40.110Z,0.95
2022-09-16T11:48:24.667Z,0.82
2022-09-16T11:51:04.325Z,0.70
2022-09-16T11:53:46.626Z,0.70
2022-09-16T11:56:21.076Z,0.73
2022-09-16T11:58:51.664Z,0.80
2022-09-16T12:01:30.375Z,1.27
2022-09-16T12:04:05.004Z,0.90
2022-09-16T12:06:42.061Z,1.17
2022-09-16T12:09:17.956Z,1.33
2022-09-16T12:11:52.311Z,0.80
2022-09-16T12:14:23.830Z,0.75
2022-09-16T12:16:56.205Z,1.13
2022-09-16T12:19:29.494Z,1.15
2022-09-16T12:22:04.981Z,0.70
2022-09-16T12:24:37.655Z,1.20
2022-09-16T12:27:16.089Z,0.90
2022-09-16T12:29:50.258Z,1.23
2022-09-16T12:32:26.378Z,0.70
2022-09-16T12:34:59.354Z,1.20
2022-09-16T12:37:35.381Z,0.95
2022-09-16T12:40:04.458Z,0.80
2022-09-16T12:42:57.437Z,0.85
2022-09-16T12:45:54.971Z,0.80
2022-09-16T12:48:44.357Z,1.10
2022-09-16T12:51:32.766Z,0.90
2022-09-16T12:55:03.967Z,0.95
2022-09-16T12:57:45.805Z,0.85
2022-09-16T13:00:22.533Z,0.77
2022-09-16T13:02:54.134Z,0.98
2022-09-16T13:05:30.932Z,0.77
2022-09-16T13:08:05.167Z,0.95
2022-09-16T13:10:54.375Z,1.08
2022-09-16T13:13:32.849Z,0.60
2022-09-16T13:16:02.566Z,0.70
2022-09-16T13:18:42.678Z,1.10
2022-09-16T13:21:24.011Z,0.80
2022-09-16T13:24:00.933Z,1.40
2022-09-16T13:26:39.776Z,0.73
2022-09-16T13:29:32.474Z,1.10
2022-09-16T13:32:00.321Z,1.27
2022-09-16T13:34:28.527Z,1.30
2022-09-16T13:36:56.594Z,0.80
2022-09-16T13:39:33.123Z,1.50
2022-09-16T13:42:12.500Z,1.27
2022-09-16T13:44:44.794Z,0.80
2022-09-16T13:47:30.831Z,1.95
2022-09-16T13:50:03.446Z,0.93
2022-09-16T13:52:33.530Z,0.73
2022-09-16T13:55:11.770Z,0.88
2022-09-16T13:57:52.933Z,0.60
2022-09-16T14:00:24.677Z,0.63
2022-09-16T14:03:08.408Z,1.60
2022-09-16T14:06:03.016Z,0.80
2022-09-16T14:08:40.526Z,1.88
2022-09-16T14:11:15.495Z,1.20
2022-09-16T14:13:46.349Z,1.42
2022-09-16T14:16:21.344Z,0.70
2022-09-16T14:18:56.745Z,0.90
2022-09-16T14:26:23.678Z,0.50
2022-09-16T14:28:51.905Z,0.47
2022-09-16T14:31:23.802Z,0.50
2022-09-16T14:33:56.768Z,2.05
2022-09-16T14:36:26.911Z,1.17
2022-09-16T14:38:58.960Z,0.50
2022-09-16T14:41:31.928Z,0.40
2022-09-16T14:44:08.483Z,0.20
2022-09-16T14:46:43.568Z,0.20
2022-09-16T14:49:13.304Z,0.20
2022-09-16T14:51:45.429Z,0.20
2022-09-16T14:54:18.886Z,0.30
2022-09-16T14:56:56.936Z,0.38
2022-09-16T14:59:28.316Z,1.30
2022-09-16T15:02:02.555Z,0.65
2022-09-16T15:04:34.298Z,0.35
2022-09-16T15:07:11.944Z,0.52
2022-09-16T15:09:46.485Z,0.65
2022-09-16T15:12:29.217Z,0.20
2022-09-16T15:14:58.005Z,0.40
2022-09-16T15:17:29.176Z,0.20
2022-09-16T15:19:59.092Z,0.20
2022-09-16T15:22:28.040Z,0.20
2022-09-16T15:24:58.389Z,0.47
2022-09-16T15:27:28.780Z,0.30
2022-09-16T15:29:59.958Z,0.13
2022-09-16T15:32:32.064Z,0.20
2022-09-16T15:35:17.440Z,0.20
2022-09-16T15:37:46.016Z,0.38
2022-09-16T15:40:35.759Z,0.35
2022-09-16T15:43:13.194Z,0.40
2022-09-16T15:45:41.646Z,0.60
2022-09-16T15:48:17.997Z,0.30
2022-09-16T15:50:49.989Z,0.40
2022-09-16T15:53:23.792Z,0.50
2022-09-16T15:56:01.521Z,0.65
2022-09-16T15:58:42.474Z,0.40
2022-09-16T16:01:17.521Z,0.52
2022-09-16T16:03:57.153Z,0.50
2022-09-16T16:06:47.234Z,0.50
2022-09-16T16:09:31.915Z,0.70
2022-09-16T16:12:01.967Z,0.57
2022-09-16T16:14:33.264Z,0.65
2022-09-16T16:17:18.547Z,0.60
2022-09-16T16:19:50.526Z,0.65
2022-09-16T16:22:19.327Z,0.50
2022-09-16T16:24:47.404Z,0.80
2022-09-16T16:27:15.539Z,0.70
2022-09-16T16:29:43.293Z,0.90
2022-09-16T16:32:13.379Z,0.52
2022-09-16T16:34:43.082Z,0.73
2022-09-16T16:37:33.679Z,0.77
2022-09-16T16:40:03.981Z,0.50
2022-09-16T16:42:32.238Z,0.75
2022-09-16T16:44:59.978Z,0.68
2022-09-16T16:47:27.758Z,0.82
2022-09-16T16:49:56.111Z,0.60
2022-09-16T16:52:25.204Z,1.33
2022-09-16T16:54:52.917Z,1.27
2022-09-16T16:57:21.042Z,1.30
2022-09-16T16:59:48.796Z,1.50
2022-09-16T17:02:17.314Z,1.77
2022-09-16T17:04:45.044Z,1.20
2022-09-16T17:07:28.413Z,1.20
2022-09-16T17:09:58.860Z,1.30
2022-09-16T17:12:26.996Z,1.52
2022-09-16T17:14:55.491Z,1.10
2022-09-16T17:17:26.535Z,1.40
2022-09-16T17:19:58.801Z,1.20
2022-09-16T17:22:26.533Z,1.02
2022-09-16T17:24:54.260Z,1.08
2022-09-16T17:27:25.676Z,0.95
2022-09-16T17:29:53.430Z,0.98
2022-09-16T17:32:21.238Z,1.35
2022-09-16T17:34:49.269Z,0.68
2022-09-16T17:37:19.776Z,1.13
2022-09-16T17:39:48.716Z,0.95
2022-09-16T17:42:16.691Z,0.80
2022-09-16T17:44:45.801Z,0.98
2022-09-16T17:47:14.113Z,0.80
2022-09-16T17:49:41.862Z,0.93
2022-09-16T17:52:09.592Z,0.90
2022-09-16T17:54:37.636Z,0.80
2022-09-16T17:57:05.505Z,1.10
2022-09-16T17:59:33.441Z,0.98
2022-09-16T18:02:02.533Z,1.55
2022-09-16T18:04:31.109Z,1.17
2022-09-16T18:06:59.139Z,1.13
2022-09-16T18:09:26.950Z,1.42
2022-09-16T18:11:54.884Z,1.40
2022-09-16T18:14:23.574Z,1.35
2022-09-16T18:16:51.811Z,1.70
2022-09-16T18:19:21.517Z,1.40
2022-09-16T18:21:49.270Z,1.92
2022-09-16T18:24:17.414Z,1.65
2022-09-16T18:26:45.301Z,1.42
2022-09-16T18:29:14.331Z,1.52
2022-09-16T18:31:43.917Z,1.58
2022-09-16T18:34:12.333Z,1.27
2022-09-16T18:36:41.825Z,1.30
2022-09-16T18:39:13.768Z,1.63
2022-09-16T18:41:42.787Z,1.42
2022-09-16T18:44:14.932Z,1.50
2022-09-16T18:46:43.066Z,1.60
2022-09-16T18:49:12.495Z,1.30
2022-09-16T18:51:47.233Z,2.28
2022-09-16T18:54:20.275Z,2.50
2022-09-16T18:56:47.984Z,2.25
2022-09-16T18:59:23.086Z,2.20
2022-09-16T19:01:53.363Z,2.55
2022-09-16T19:04:23.901Z,4.03
2022-09-16T19:06:55.961Z,5.90
2022-09-16T19:09:25.407Z,8.00
2022-09-16T19:11:54.348Z,6.88
2022-09-16T19:14:25.104Z,3.45
2022-09-16T19:16:53.143Z,2.10
2022-09-16T19:19:22.300Z,2.15
2022-09-16T19:21:50.131Z,3.03
2022-09-16T19:24:21.281Z,2.88
2022-09-16T19:26:51.051Z,2.78
2022-09-16T19:29:19.297Z,2.30
2022-09-16T19:31:49.638Z,3.10
2022-09-16T19:34:17.741Z,2.55
2022-09-16T19:36:45.679Z,2.53
2022-09-16T19:39:14.700Z,2.30
2022-09-16T19:41:45.145Z,2.20
2022-09-16T19:44:16.143Z,2.72
2022-09-16T19:46:46.734Z,1.85
2022-09-16T19:49:17.526Z,1.80
2022-09-16T19:51:45.532Z,1.75
2022-09-16T19:54:13.606Z,1.60
2022-09-16T19:56:43.479Z,3.15
2022-09-16T19:59:14.053Z,3.00
2022-09-16T20:01:42.375Z,2.47
2022-09-16T20:04:10.740Z,2.28
2022-09-16T20:06:40.669Z,2.00
2022-09-16T20:09:11.499Z,2.28
2022-09-16T20:11:41.876Z,1.95
2022-09-16T20:14:15.524Z,1.50
2022-09-16T20:16:44.433Z,1.60
2022-09-16T20:19:14.519Z,2.50
2022-09-16T20:21:42.818Z,1.20
2022-09-16T20:24:16.487Z,1.25
2022-09-16T20:26:44.197Z,1.38
2022-09-16T20:29:12.456Z,1.10
2022-09-16T20:31:41.628Z,1.45
2022-09-16T20:34:11.249Z,0.90
2022-09-16T20:36:41.010Z,1.20
2022-09-16T20:39:10.389Z,0.90
2022-09-16T20:41:40.726Z,0.93
2022-09-16T20:44:08.671Z,1.45
2022-09-16T20:46:38.706Z,0.85
2022-09-16T20:49:10.678Z,1.05
2022-09-16T20:51:38.535Z,1.33
2022-09-16T20:54:08.890Z,1.35
2022-09-16T20:56:39.826Z,0.68
2022-09-16T20:59:09.507Z,1.20
2022-09-16T21:01:39.262Z,1.23
2022-09-16T21:04:11.712Z,0.80
2022-09-16T21:06:39.910Z,0.98
2022-09-16T21:09:10.198Z,1.35
2022-09-16T21:11:39.172Z,1.15
2022-09-16T21:14:07.852Z,0.90
2022-09-16T21:16:37.671Z,2.15
2022-09-16T21:19:09.869Z,1.60
2022-09-16T21:21:39.585Z,1.25
2022-09-16T21:24:09.113Z,1.75
2022-09-16T21:26:39.353Z,2.05
2022-09-16T21:29:11.060Z,1.27
2022-09-16T21:31:41.311Z,1.33
2022-09-16T21:34:16.009Z,1.10
2022-09-16T21:36:45.206Z,1.97
2022-09-16T21:39:13.919Z,1.70
2022-09-16T21:41:41.726Z,1.05
2022-09-16T21:44:10.016Z,1.20
2022-09-16T21:46:41.301Z,1.27
2022-09-16T21:49:18.766Z,1.50
2022-09-16T21:51:47.356Z,1.80
2022-09-16T21:54:19.656Z,1.30
2022-09-16T21:56:49.003Z,1.30
2022-09-16T21:59:17.257Z,1.10
2022-09-16T22:01:45.019Z,1.73
2022-09-16T22:04:16.367Z,1.50
2022-09-16T22:06:44.221Z,1.48
2022-09-16T22:09:12.880Z,1.27
2022-09-16T22:11:42.543Z,1.30
2022-09-16T22:14:12.320Z,1.35
2022-09-16T22:16:41.439Z,1.52
2022-09-16T22:19:11.686Z,1.63
2022-09-16T22:21:44.908Z,3.10
2022-09-16T22:24:14.039Z,3.20
2022-09-16T22:26:42.998Z,3.05
2022-09-16T22:29:13.605Z,2.45
2022-09-16T22:31:42.910Z,3.88
2022-09-16T22:34:11.292Z,8.20
2022-09-16T22:36:40.678Z,6.05
2022-09-16T22:39:12.228Z,2.15
2022-09-16T22:41:40.024Z,1.27
2022-09-16T22:44:08.096Z,1.27
2022-09-16T22:46:42.492Z,1.13
2022-09-16T22:49:11.149Z,1.37
2022-09-16T22:51:40.499Z,0.95
2022-09-16T22:54:09.334Z,1.48
2022-09-16T22:56:37.367Z,1.25
2022-09-16T22:59:06.702Z,1.25
2022-09-16T23:01:38.023Z,1.10
2022-09-16T23:04:07.574Z,1.10
2022-09-16T23:06:37.004Z,1.42
2022-09-16T23:09:07.290Z,0.90
2022-09-16T23:11:36.515Z,1.25
2022-09-16T23:14:05.750Z,1.10
2022-09-16T23:16:35.781Z,0.95
2022-09-16T23:19:06.664Z,1.17
2022-09-16T23:21:36.053Z,1.33
2022-09-16T23:24:07.980Z,0.95
2022-09-16T23:26:38.190Z,1.10
2022-09-16T23:29:11.530Z,1.25
2022-09-16T23:31:41.555Z,1.17
2022-09-16T23:34:10.372Z,1.20
2022-09-16T23:36:39.534Z,1.50
2022-09-16T23:39:10.088Z,1.00
2022-09-16T23:41:38.918Z,1.38
2022-09-16T23:44:07.235Z,0.90
2022-09-16T23:46:35.203Z,1.02
2022-09-16T23:49:03.527Z,1.52
2022-09-16T23:51:32.260Z,1.33
2022-09-16T23:54:01.071Z,1.38
2022-09-16T23:56:30.220Z,1.83
2022-09-16T23:59:01.072Z,1.13
